sensor_id;sensor_type;location;lat;lon;timestamp;P1;durP1;ratioP1;P2;durP2;ratioP2
74821;SDS011;63353;48.702;8.884;2023-05-03T00:01:12;16.80;;;12.60;;
74821;SDS011;63353;48.702;8.884;2023-05-03T00:03:41;16.87;;;11.23;;
74821;SDS011;63353;48.702;8.884;2023-05-03T00:06:13;26.53;;;15.57;;
74821;SDS011;63353;48.702;8.884;2023-05-03T00:08:42;35.90;;;21.53;;
74821;SDS011;63353;48.702;8.884;2023-05-03T00:11:16;30.10;;;16.67;;
74821;SDS011;63353;48.702;8.884;2023-05-03T00:13:42;19.43;;;11.97;;
74821;SDS011;63353;48.702;8.884;2023-05-03T00:16:07;25.13;;;15.03;;
74821;SDS011;63353;48.702;8.884;2023-05-03T00:18:33;22.83;;;13.17;;
74821;SDS011;63353;48.702;8.884;2023-05-03T00:21:02;27.40;;;15.60;;
74821;SDS011;63353;48.702;8.884;2023-05-03T00:23:30;27.63;;;15.83;;
74821;SDS011;63353;48.702;8.884;2023-05-03T00:25:56;21.30;;;13.17;;
74821;SDS011;63353;48.702;8.884;2023-05-03T00:28:23;22.83;;;14.00;;
74821;SDS011;63353;48.702;8.884;2023-05-03T00:30:52;13.43;;;9.43;;
74821;SDS011;63353;48.702;8.884;2023-05-03T00:33:18;18.30;;;11.50;;
74821;SDS011;63353;48.702;8.884;2023-05-03T00:35:46;19.60;;;12.17;;
74821;SDS011;63353;48.702;8.884;2023-05-03T00:38:12;14.13;;;8.73;;
74821;SDS011;63353;48.702;8.884;2023-05-03T00:40:41;13.00;;;8.30;;
74821;SDS011;63353;48.702;8.884;2023-05-03T00:43:13;12.93;;;8.20;;
74821;SDS011;63353;48.702;8.884;2023-05-03T00:45:38;12.43;;;7.70;;
74821;SDS011;63353;48.702;8.884;2023-05-03T00:48:04;11.33;;;7.80;;
74821;SDS011;63353;48.702;8.884;2023-05-03T00:50:30;12.57;;;7.70;;
74821;SDS011;63353;48.702;8.884;2023-05-03T00:52:56;13.77;;;8.93;;
74821;SDS011;63353;48.702;8.884;2023-05-03T00:55:26;16.97;;;9.13;;
74821;SDS011;63353;48.702;8.884;2023-05-03T00:57:53;13.50;;;8.10;;
74821;SDS011;63353;48.702;8.884;2023-05-03T01:00:22;13.17;;;8.27;;
74821;SDS011;63353;48.702;8.884;2023-05-03T01:02:49;12.20;;;8.17;;
74821;SDS011;63353;48.702;8.884;2023-05-03T01:05:14;13.87;;;8.07;;
74821;SDS011;63353;48.702;8.884;2023-05-03T01:07:53;16.27;;;8.43;;
74821;SDS011;63353;48.702;8.884;2023-05-03T01:10:54;13.57;;;7.70;;
74821;SDS011;63353;48.702;8.884;2023-05-03T01:13:40;13.27;;;7.73;;
74821;SDS011;63353;48.702;8.884;2023-05-03T01:16:17;14.07;;;8.30;;
74821;SDS011;63353;48.702;8.884;2023-05-03T01:18:51;11.83;;;7.93;;
74821;SDS011;63353;48.702;8.884;2023-05-03T01:21:22;11.90;;;7.80;;
74821;SDS011;63353;48.702;8.884;2023-05-03T01:24:12;13.47;;;8.43;;
74821;SDS011;63353;48.702;8.884;2023-05-03T01:26:49;12.97;;;8.23;;
74821;SDS011;63353;48.702;8.884;2023-05-03T01:29:21;14.00;;;8.40;;
74821;SDS011;63353;48.702;8.884;2023-05-03T01:31:52;12.50;;;8.40;;
74821;SDS011;63353;48.702;8.884;2023-05-03T01:37:02;12.73;;;8.20;;
74821;SDS011;63353;48.702;8.884;2023-05-03T01:42:28;15.50;;;8.57;;
74821;SDS011;63353;48.702;8.884;2023-05-03T01:44:55;14.67;;;8.20;;
74821;SDS011;63353;48.702;8.884;2023-05-03T01:47:21;13.47;;;8.43;;
74821;SDS011;63353;48.702;8.884;2023-05-03T01:49:47;14.17;;;8.50;;
74821;SDS011;63353;48.702;8.884;2023-05-03T01:52:13;12.70;;;8.23;;
74821;SDS011;63353;48.702;8.884;2023-05-03T01:54:44;14.67;;;9.13;;
74821;SDS011;63353;48.702;8.884;2023-05-03T01:57:10;13.53;;;8.93;;
74821;SDS011;63353;48.702;8.884;2023-05-03T01:59:44;15.37;;;9.07;;
74821;SDS011;63353;48.702;8.884;2023-05-03T02:02:10;15.50;;;8.80;;
74821;SDS011;63353;48.702;8.884;2023-05-03T02:04:35;15.07;;;9.07;;
74821;SDS011;63353;48.702;8.884;2023-05-03T02:07:02;15.17;;;8.73;;
74821;SDS011;63353;48.702;8.884;2023-05-03T02:09:27;14.23;;;8.70;;
74821;SDS011;63353;48.702;8.884;2023-05-03T02:11:53;13.93;;;8.73;;
74821;SDS011;63353;48.702;8.884;2023-05-03T02:14:18;14.70;;;8.73;;
74821;SDS011;63353;48.702;8.884;2023-05-03T02:16:53;13.07;;;8.47;;
74821;SDS011;63353;48.702;8.884;2023-05-03T02:19:22;16.97;;;9.17;;
74821;SDS011;63353;48.702;8.884;2023-05-03T02:21:48;14.70;;;8.80;;
74821;SDS011;63353;48.702;8.884;2023-05-03T02:24:14;15.93;;;9.13;;
74821;SDS011;63353;48.702;8.884;2023-05-03T02:26:49;11.63;;;8.57;;
74821;SDS011;63353;48.702;8.884;2023-05-03T02:29:18;14.60;;;8.57;;
74821;SDS011;63353;48.702;8.884;2023-05-03T02:31:43;14.80;;;9.53;;
74821;SDS011;63353;48.702;8.884;2023-05-03T02:34:12;15.80;;;9.07;;
74821;SDS011;63353;48.702;8.884;2023-05-03T02:36:37;15.60;;;8.60;;
74821;SDS011;63353;48.702;8.884;2023-05-03T02:39:03;13.47;;;8.30;;
74821;SDS011;63353;48.702;8.884;2023-05-03T02:41:29;14.47;;;8.87;;
74821;SDS011;63353;48.702;8.884;2023-05-03T02:43:54;14.23;;;8.83;;
74821;SDS011;63353;48.702;8.884;2023-05-03T02:46:20;16.60;;;9.63;;
74821;SDS011;63353;48.702;8.884;2023-05-03T02:48:55;17.30;;;9.63;;
74821;SDS011;63353;48.702;8.884;2023-05-03T02:51:20;14.47;;;8.43;;
74821;SDS011;63353;48.702;8.884;2023-05-03T02:53:49;15.60;;;9.20;;
74821;SDS011;63353;48.702;8.884;2023-05-03T02:56:18;16.53;;;9.63;;
74821;SDS011;63353;48.702;8.884;2023-05-03T02:58:43;18.03;;;10.57;;
74821;SDS011;63353;48.702;8.884;2023-05-03T03:01:15;15.53;;;9.60;;
74821;SDS011;63353;48.702;8.884;2023-05-03T03:03:41;14.70;;;8.93;;
74821;SDS011;63353;48.702;8.884;2023-05-03T03:06:09;16.23;;;9.30;;
74821;SDS011;63353;48.702;8.884;2023-05-03T03:08:50;17.67;;;9.27;;
74821;SDS011;63353;48.702;8.884;2023-05-03T03:11:28;15.57;;;9.63;;
74821;SDS011;63353;48.702;8.884;2023-05-03T03:13:56;16.97;;;9.33;;
74821;SDS011;63353;48.702;8.884;2023-05-03T03:16:22;16.33;;;9.27;;
74821;SDS011;63353;48.702;8.884;2023-05-03T03:18:51;15.37;;;9.03;;
74821;SDS011;63353;48.702;8.884;2023-05-03T03:21:17;18.77;;;10.07;;
74821;SDS011;63353;48.702;8.884;2023-05-03T03:23:42;19.50;;;9.87;;
74821;SDS011;63353;48.702;8.884;2023-05-03T03:26:08;14.00;;;8.67;;
74821;SDS011;63353;48.702;8.884;2023-05-03T03:28:33;14.67;;;9.00;;
74821;SDS011;63353;48.702;8.884;2023-05-03T03:30:59;17.13;;;9.57;;
74821;SDS011;63353;48.702;8.884;2023-05-03T03:33:25;16.27;;;9.23;;
74821;SDS011;63353;48.702;8.884;2023-05-03T03:35:50;18.10;;;9.27;;
74821;SDS011;63353;48.702;8.884;2023-05-03T03:38:16;16.50;;;9.67;;
74821;SDS011;63353;48.702;8.884;2023-05-03T03:40:42;15.83;;;9.43;;
74821;SDS011;63353;48.702;8.884;2023-05-03T03:43:07;16.50;;;9.57;;
74821;SDS011;63353;48.702;8.884;2023-05-03T03:45:34;15.67;;;9.93;;
74821;SDS011;63353;48.702;8.884;2023-05-03T03:47:59;19.07;;;9.87;;
74821;SDS011;63353;48.702;8.884;2023-05-03T03:50:28;16.67;;;8.77;;
74821;SDS011;63353;48.702;8.884;2023-05-03T03:52:54;19.87;;;9.57;;
74821;SDS011;63353;48.702;8.884;2023-05-03T03:55:19;17.00;;;9.80;;
74821;SDS011;63353;48.702;8.884;2023-05-03T03:57:48;17.63;;;9.63;;
74821;SDS011;63353;48.702;8.884;2023-05-03T04:00:14;17.30;;;9.70;;
74821;SDS011;63353;48.702;8.884;2023-05-03T04:02:40;18.57;;;11.17;;
74821;SDS011;63353;48.702;8.884;2023-05-03T04:05:06;22.93;;;11.63;;
74821;SDS011;63353;48.702;8.884;2023-05-03T04:07:32;27.13;;;12.73;;
74821;SDS011;63353;48.702;8.884;2023-05-03T04:09:57;25.57;;;13.63;;
74821;SDS011;63353;48.702;8.884;2023-05-03T04:12:23;25.83;;;12.63;;
74821;SDS011;63353;48.702;8.884;2023-05-03T04:14:49;24.67;;;11.97;;
74821;SDS011;63353;48.702;8.884;2023-05-03T04:17:15;23.43;;;12.67;;
74821;SDS011;63353;48.702;8.884;2023-05-03T04:19:40;23.37;;;12.07;;
74821;SDS011;63353;48.702;8.884;2023-05-03T04:22:10;21.70;;;11.60;;
74821;SDS011;63353;48.702;8.884;2023-05-03T04:27:29;23.20;;;11.67;;
74821;SDS011;63353;48.702;8.884;2023-05-03T04:29:55;24.07;;;12.00;;
74821;SDS011;63353;48.702;8.884;2023-05-03T04:32:26;22.73;;;11.80;;
74821;SDS011;63353;48.702;8.884;2023-05-03T04:34:52;22.67;;;12.33;;
74821;SDS011;63353;48.702;8.884;2023-05-03T04:37:18;20.67;;;11.13;;
74821;SDS011;63353;48.702;8.884;2023-05-03T04:39:46;21.70;;;12.17;;
74821;SDS011;63353;48.702;8.884;2023-05-03T04:42:11;19.50;;;11.40;;
74821;SDS011;63353;48.702;8.884;2023-05-03T04:44:42;20.93;;;11.43;;
74821;SDS011;63353;48.702;8.884;2023-05-03T04:47:11;22.20;;;11.50;;
74821;SDS011;63353;48.702;8.884;2023-05-03T04:49:36;21.70;;;12.00;;
74821;SDS011;63353;48.702;8.884;2023-05-03T04:52:03;23.43;;;11.87;;
74821;SDS011;63353;48.702;8.884;2023-05-03T04:54:29;22.40;;;11.93;;
74821;SDS011;63353;48.702;8.884;2023-05-03T04:56:58;22.60;;;11.83;;
74821;SDS011;63353;48.702;8.884;2023-05-03T04:59:23;19.73;;;10.80;;
74821;SDS011;63353;48.702;8.884;2023-05-03T05:01:49;20.83;;;11.70;;
74821;SDS011;63353;48.702;8.884;2023-05-03T05:04:15;16.90;;;11.03;;
74821;SDS011;63353;48.702;8.884;2023-05-03T05:06:40;19.53;;;10.40;;
74821;SDS011;63353;48.702;8.884;2023-05-03T05:09:06;27.87;;;14.87;;
74821;SDS011;63353;48.702;8.884;2023-05-03T05:11:46;21.03;;;11.73;;
74821;SDS011;63353;48.702;8.884;2023-05-03T05:14:12;20.57;;;11.00;;
74821;SDS011;63353;48.702;8.884;2023-05-03T05:16:44;19.70;;;11.23;;
74821;SDS011;63353;48.702;8.884;2023-05-03T05:19:12;22.97;;;11.57;;
74821;SDS011;63353;48.702;8.884;2023-05-03T05:21:41;19.97;;;11.23;;
74821;SDS011;63353;48.702;8.884;2023-05-03T05:24:07;18.30;;;10.87;;
74821;SDS011;63353;48.702;8.884;2023-05-03T05:26:40;20.20;;;10.57;;
74821;SDS011;63353;48.702;8.884;2023-05-03T05:29:06;18.30;;;11.10;;
74821;SDS011;63353;48.702;8.884;2023-05-03T05:31:32;21.00;;;11.03;;
74821;SDS011;63353;48.702;8.884;2023-05-03T05:33:59;19.83;;;11.30;;
74821;SDS011;63353;48.702;8.884;2023-05-03T05:36:25;20.27;;;10.97;;
74821;SDS011;63353;48.702;8.884;2023-05-03T05:38:54;21.90;;;12.20;;
74821;SDS011;63353;48.702;8.884;2023-05-03T05:41:19;21.77;;;12.07;;
74821;SDS011;63353;48.702;8.884;2023-05-03T05:43:45;21.20;;;12.30;;
74821;SDS011;63353;48.702;8.884;2023-05-03T05:46:11;21.20;;;11.33;;
74821;SDS011;63353;48.702;8.884;2023-05-03T05:48:37;21.50;;;11.87;;
74821;SDS011;63353;48.702;8.884;2023-05-03T05:51:03;20.60;;;11.70;;
74821;SDS011;63353;48.702;8.884;2023-05-03T05:53:30;20.50;;;11.77;;
74821;SDS011;63353;48.702;8.884;2023-05-03T05:55:58;22.63;;;11.70;;
74821;SDS011;63353;48.702;8.884;2023-05-03T05:58:24;20.47;;;11.67;;
74821;SDS011;63353;48.702;8.884;2023-05-03T06:00:56;18.07;;;11.67;;
74821;SDS011;63353;48.702;8.884;2023-05-03T06:03:22;19.57;;;11.43;;
74821;SDS011;63353;48.702;8.884;2023-05-03T06:05:48;18.67;;;11.80;;
74821;SDS011;63353;48.702;8.884;2023-05-03T06:08:13;22.47;;;13.73;;
74821;SDS011;63353;48.702;8.884;2023-05-03T06:10:39;24.03;;;13.10;;
74821;SDS011;63353;48.702;8.884;2023-05-03T06:13:10;21.33;;;13.33;;
74821;SDS011;63353;48.702;8.884;2023-05-03T06:15:36;22.07;;;12.80;;
74821;SDS011;63353;48.702;8.884;2023-05-03T06:18:05;22.97;;;13.67;;
74821;SDS011;63353;48.702;8.884;2023-05-03T06:20:49;23.47;;;13.47;;
74821;SDS011;63353;48.702;8.884;2023-05-03T06:23:24;23.23;;;14.20;;
74821;SDS011;63353;48.702;8.884;2023-05-03T06:25:51;23.00;;;14.17;;
74821;SDS011;63353;48.702;8.884;2023-05-03T06:28:20;25.83;;;14.80;;
74821;SDS011;63353;48.702;8.884;2023-05-03T06:30:49;23.63;;;14.13;;
74821;SDS011;63353;48.702;8.884;2023-05-03T06:33:14;23.93;;;14.50;;
74821;SDS011;63353;48.702;8.884;2023-05-03T06:35:46;22.80;;;13.97;;
74821;SDS011;63353;48.702;8.884;2023-05-03T06:38:18;24.67;;;13.63;;
74821;SDS011;63353;48.702;8.884;2023-05-03T06:40:50;25.60;;;13.77;;
74821;SDS011;63353;48.702;8.884;2023-05-03T06:43:18;21.77;;;13.83;;
74821;SDS011;63353;48.702;8.884;2023-05-03T06:45:51;26.37;;;14.93;;
74821;SDS011;63353;48.702;8.884;2023-05-03T06:48:17;26.63;;;15.10;;
74821;SDS011;63353;48.702;8.884;2023-05-03T06:50:43;25.23;;;16.60;;
74821;SDS011;63353;48.702;8.884;2023-05-03T06:53:12;22.90;;;14.70;;
74821;SDS011;63353;48.702;8.884;2023-05-03T06:55:47;23.57;;;14.50;;
74821;SDS011;63353;48.702;8.884;2023-05-03T06:58:16;23.87;;;15.20;;
74821;SDS011;63353;48.702;8.884;2023-05-03T07:00:41;23.60;;;15.10;;
74821;SDS011;63353;48.702;8.884;2023-05-03T07:03:13;23.90;;;15.43;;
74821;SDS011;63353;48.702;8.884;2023-05-03T07:05:39;25.07;;;15.13;;
74821;SDS011;63353;48.702;8.884;2023-05-03T07:08:07;29.60;;;17.67;;
74821;SDS011;63353;48.702;8.884;2023-05-03T07:10:36;27.63;;;18.70;;
74821;SDS011;63353;48.702;8.884;2023-05-03T07:13:08;25.73;;;16.37;;
74821;SDS011;63353;48.702;8.884;2023-05-03T07:15:36;24.77;;;16.73;;
74821;SDS011;63353;48.702;8.884;2023-05-03T07:18:02;24.87;;;16.07;;
74821;SDS011;63353;48.702;8.884;2023-05-03T07:20:31;24.10;;;15.63;;
74821;SDS011;63353;48.702;8.884;2023-05-03T07:22:56;20.07;;;13.87;;
74821;SDS011;63353;48.702;8.884;2023-05-03T07:25:25;22.37;;;15.57;;
74821;SDS011;63353;48.702;8.884;2023-05-03T07:27:54;25.67;;;19.70;;
74821;SDS011;63353;48.702;8.884;2023-05-03T07:30:20;23.03;;;16.07;;
74821;SDS011;63353;48.702;8.884;2023-05-03T07:32:46;21.43;;;14.40;;
74821;SDS011;63353;48.702;8.884;2023-05-03T07:35:12;25.23;;;15.43;;
74821;SDS011;63353;48.702;8.884;2023-05-03T07:37:38;22.07;;;14.87;;
74821;SDS011;63353;48.702;8.884;2023-05-03T07:40:05;23.47;;;15.87;;
74821;SDS011;63353;48.702;8.884;2023-05-03T07:42:31;24.07;;;16.20;;
74821;SDS011;63353;48.702;8.884;2023-05-03T07:45:03;21.83;;;14.77;;
74821;SDS011;63353;48.702;8.884;2023-05-03T07:47:32;22.57;;;15.17;;
74821;SDS011;63353;48.702;8.884;2023-05-03T07:50:01;21.20;;;14.70;;
74821;SDS011;63353;48.702;8.884;2023-05-03T07:52:29;19.17;;;13.83;;
74821;SDS011;63353;48.702;8.884;2023-05-03T07:55:01;23.90;;;17.73;;
74821;SDS011;63353;48.702;8.884;2023-05-03T07:57:33;20.07;;;14.60;;
74821;SDS011;63353;48.702;8.884;2023-05-03T08:00:00;20.50;;;14.53;;
74821;SDS011;63353;48.702;8.884;2023-05-03T08:02:33;20.80;;;14.63;;
74821;SDS011;63353;48.702;8.884;2023-05-03T08:04:58;22.33;;;15.47;;
74821;SDS011;63353;48.702;8.884;2023-05-03T08:07:24;23.00;;;16.00;;
74821;SDS011;63353;48.702;8.884;2023-05-03T08:09:53;21.10;;;14.90;;
74821;SDS011;63353;48.702;8.884;2023-05-03T08:12:26;20.53;;;14.43;;
74821;SDS011;63353;48.702;8.884;2023-05-03T08:14:55;21.20;;;14.37;;
74821;SDS011;63353;48.702;8.884;2023-05-03T08:17:27;20.43;;;15.10;;
74821;SDS011;63353;48.702;8.884;2023-05-03T08:19:54;21.10;;;15.10;;
74821;SDS011;63353;48.702;8.884;2023-05-03T08:22:20;18.50;;;14.40;;
74821;SDS011;63353;48.702;8.884;2023-05-03T08:24:46;22.77;;;15.47;;
74821;SDS011;63353;48.702;8.884;2023-05-03T08:27:17;23.57;;;16.40;;
74821;SDS011;63353;48.702;8.884;2023-05-03T08:29:43;18.83;;;14.47;;
74821;SDS011;63353;48.702;8.884;2023-05-03T08:32:12;20.17;;;14.57;;
74821;SDS011;63353;48.702;8.884;2023-05-03T08:34:41;20.43;;;15.00;;
74821;SDS011;63353;48.702;8.884;2023-05-03T08:37:06;16.60;;;14.27;;
74821;SDS011;63353;48.702;8.884;2023-05-03T08:39:35;18.07;;;14.00;;
74821;SDS011;63353;48.702;8.884;2023-05-03T08:42:05;19.07;;;14.07;;
74821;SDS011;63353;48.702;8.884;2023-05-03T08:44:31;20.37;;;14.13;;
74821;SDS011;63353;48.702;8.884;2023-05-03T08:47:02;16.37;;;13.30;;
74821;SDS011;63353;48.702;8.884;2023-05-03T08:49:30;17.83;;;13.80;;
74821;SDS011;63353;48.702;8.884;2023-05-03T08:51:57;17.50;;;13.03;;
74821;SDS011;63353;48.702;8.884;2023-05-03T08:54:25;16.33;;;13.20;;
74821;SDS011;63353;48.702;8.884;2023-05-03T08:56:57;18.07;;;13.47;;
74821;SDS011;63353;48.702;8.884;2023-05-03T08:59:23;16.73;;;13.70;;
74821;SDS011;63353;48.702;8.884;2023-05-03T09:01:51;15.50;;;12.70;;
74821;SDS011;63353;48.702;8.884;2023-05-03T09:04:20;14.60;;;12.43;;
74821;SDS011;63353;48.702;8.884;2023-05-03T09:07:08;17.77;;;13.40;;
74821;SDS011;63353;48.702;8.884;2023-05-03T09:09:41;15.17;;;12.97;;
74821;SDS011;63353;48.702;8.884;2023-05-03T09:12:09;15.47;;;13.30;;
74821;SDS011;63353;48.702;8.884;2023-05-03T09:14:45;15.87;;;12.63;;
74821;SDS011;63353;48.702;8.884;2023-05-03T09:17:14;17.27;;;13.03;;
74821;SDS011;63353;48.702;8.884;2023-05-03T09:19:51;16.80;;;13.57;;
74821;SDS011;63353;48.702;8.884;2023-05-03T09:22:21;17.80;;;13.67;;
74821;SDS011;63353;48.702;8.884;2023-05-03T09:24:58;17.20;;;13.77;;
74821;SDS011;63353;48.702;8.884;2023-05-03T09:27:27;17.63;;;14.40;;
74821;SDS011;63353;48.702;8.884;2023-05-03T09:29:53;18.63;;;14.40;;
74821;SDS011;63353;48.702;8.884;2023-05-03T09:32:19;17.17;;;13.90;;
74821;SDS011;63353;48.702;8.884;2023-05-03T09:34:49;16.93;;;13.90;;
74821;SDS011;63353;48.702;8.884;2023-05-03T09:37:14;15.83;;;13.07;;
74821;SDS011;63353;48.702;8.884;2023-05-03T09:39:44;16.10;;;13.27;;
74821;SDS011;63353;48.702;8.884;2023-05-03T09:42:16;17.80;;;14.13;;
74821;SDS011;63353;48.702;8.884;2023-05-03T09:44:48;17.67;;;13.60;;
74821;SDS011;63353;48.702;8.884;2023-05-03T09:47:20;16.20;;;13.10;;
74821;SDS011;63353;48.702;8.884;2023-05-03T09:49:48;16.07;;;13.43;;
74821;SDS011;63353;48.702;8.884;2023-05-03T09:52:17;14.63;;;11.77;;
74821;SDS011;63353;48.702;8.884;2023-05-03T09:54:49;20.83;;;16.00;;
74821;SDS011;63353;48.702;8.884;2023-05-03T09:57:17;17.73;;;12.73;;
74821;SDS011;63353;48.702;8.884;2023-05-03T09:59:47;16.93;;;13.00;;
74821;SDS011;63353;48.702;8.884;2023-05-03T10:02:14;15.00;;;13.37;;
74821;SDS011;63353;48.702;8.884;2023-05-03T10:04:49;20.90;;;17.17;;
74821;SDS011;63353;48.702;8.884;2023-05-03T10:07:24;15.53;;;12.50;;
74821;SDS011;63353;48.702;8.884;2023-05-03T10:09:52;19.23;;;14.60;;
74821;SDS011;63353;48.702;8.884;2023-05-03T10:12:20;19.27;;;15.07;;
74821;SDS011;63353;48.702;8.884;2023-05-03T10:14:47;16.33;;;14.10;;
74821;SDS011;63353;48.702;8.884;2023-05-03T10:17:19;17.40;;;13.50;;
74821;SDS011;63353;48.702;8.884;2023-05-03T10:23:30;19.07;;;14.37;;
74821;SDS011;63353;48.702;8.884;2023-05-03T10:28:40;15.40;;;12.60;;
74821;SDS011;63353;48.702;8.884;2023-05-03T10:31:41;16.57;;;13.07;;
74821;SDS011;63353;48.702;8.884;2023-05-03T10:34:21;15.93;;;12.70;;
74821;SDS011;63353;48.702;8.884;2023-05-03T10:36:48;18.60;;;14.33;;
74821;SDS011;63353;48.702;8.884;2023-05-03T10:39:19;18.57;;;14.70;;
74821;SDS011;63353;48.702;8.884;2023-05-03T10:42:02;14.17;;;12.37;;
74821;SDS011;63353;48.702;8.884;2023-05-03T10:44:39;14.43;;;11.90;;
74821;SDS011;63353;48.702;8.884;2023-05-03T10:47:32;21.30;;;18.83;;
74821;SDS011;63353;48.702;8.884;2023-05-03T10:52:48;11.07;;;9.67;;
74821;SDS011;63353;48.702;8.884;2023-05-03T10:55:18;30.70;;;23.50;;
74821;SDS011;63353;48.702;8.884;2023-05-03T10:57:46;15.47;;;12.70;;
74821;SDS011;63353;48.702;8.884;2023-05-03T11:05:47;13.93;;;12.43;;
74821;SDS011;63353;48.702;8.884;2023-05-03T11:08:23;12.47;;;10.90;;
74821;SDS011;63353;48.702;8.884;2023-05-03T11:10:55;15.97;;;14.37;;
74821;SDS011;63353;48.702;8.884;2023-05-03T11:13:23;11.30;;;10.17;;
74821;SDS011;63353;48.702;8.884;2023-05-03T11:15:49;11.77;;;10.50;;
74821;SDS011;63353;48.702;8.884;2023-05-03T11:18:14;10.30;;;9.13;;
74821;SDS011;63353;48.702;8.884;2023-05-03T11:20:40;10.17;;;9.07;;
74821;SDS011;63353;48.702;8.884;2023-05-03T11:23:23;10.63;;;9.53;;
74821;SDS011;63353;48.702;8.884;2023-05-03T11:25:50;13.07;;;10.60;;
74821;SDS011;63353;48.702;8.884;2023-05-03T11:28:19;10.53;;;9.43;;
74821;SDS011;63353;48.702;8.884;2023-05-03T11:30:45;10.17;;;9.17;;
74821;SDS011;63353;48.702;8.884;2023-05-03T11:33:11;15.27;;;12.13;;
74821;SDS011;63353;48.702;8.884;2023-05-03T11:35:37;14.17;;;12.67;;
74821;SDS011;63353;48.702;8.884;2023-05-03T11:38:06;13.00;;;10.30;;
74821;SDS011;63353;48.702;8.884;2023-05-03T11:40:34;14.50;;;13.00;;
74821;SDS011;63353;48.702;8.884;2023-05-03T11:43:03;10.73;;;9.67;;
74821;SDS011;63353;48.702;8.884;2023-05-03T11:48:03;11.23;;;9.47;;
74821;SDS011;63353;48.702;8.884;2023-05-03T11:53:11;9.40;;;8.40;;
74821;SDS011;63353;48.702;8.884;2023-05-03T11:55:50;9.50;;;8.60;;
74821;SDS011;63353;48.702;8.884;2023-05-03T12:00:54;8.93;;;8.03;;
74821;SDS011;63353;48.702;8.884;2023-05-03T12:03:21;9.63;;;7.93;;
74821;SDS011;63353;48.702;8.884;2023-05-03T12:05:49;9.20;;;8.30;;
74821;SDS011;63353;48.702;8.884;2023-05-03T12:08:18;8.40;;;7.60;;
74821;SDS011;63353;48.702;8.884;2023-05-03T12:10:48;17.97;;;16.03;;
74821;SDS011;63353;48.702;8.884;2023-05-03T12:13:25;9.40;;;8.37;;
74821;SDS011;63353;48.702;8.884;2023-05-03T12:16:01;14.10;;;10.87;;
74821;SDS011;63353;48.702;8.884;2023-05-03T12:24:33;10.43;;;8.23;;
74821;SDS011;63353;48.702;8.884;2023-05-03T12:26:59;8.53;;;7.60;;
74821;SDS011;63353;48.702;8.884;2023-05-03T12:29:25;10.40;;;7.77;;
74821;SDS011;63353;48.702;8.884;2023-05-03T12:31:57;8.63;;;7.80;;
74821;SDS011;63353;48.702;8.884;2023-05-03T12:34:26;8.93;;;7.93;;
74821;SDS011;63353;48.702;8.884;2023-05-03T12:36:55;8.23;;;7.23;;
74821;SDS011;63353;48.702;8.884;2023-05-03T12:39:23;7.47;;;6.67;;
74821;SDS011;63353;48.702;8.884;2023-05-03T12:41:49;8.43;;;6.50;;
74821;SDS011;63353;48.702;8.884;2023-05-03T12:44:14;8.37;;;7.57;;
74821;SDS011;63353;48.702;8.884;2023-05-03T12:46:40;8.00;;;7.20;;
74821;SDS011;63353;48.702;8.884;2023-05-03T12:49:09;9.07;;;8.27;;
74821;SDS011;63353;48.702;8.884;2023-05-03T12:51:37;7.87;;;6.97;;
74821;SDS011;63353;48.702;8.884;2023-05-03T12:54:09;9.53;;;7.90;;
74821;SDS011;63353;48.702;8.884;2023-05-03T12:56:35;8.90;;;8.00;;
74821;SDS011;63353;48.702;8.884;2023-05-03T12:59:10;7.90;;;7.20;;
74821;SDS011;63353;48.702;8.884;2023-05-03T13:01:36;9.87;;;7.60;;
74821;SDS011;63353;48.702;8.884;2023-05-03T13:04:01;7.93;;;7.13;;
74821;SDS011;63353;48.702;8.884;2023-05-03T13:06:30;9.53;;;7.13;;
74821;SDS011;63353;48.702;8.884;2023-05-03T13:08:58;6.93;;;6.20;;
74821;SDS011;63353;48.702;8.884;2023-05-03T13:11:26;8.40;;;7.60;;
74821;SDS011;63353;48.702;8.884;2023-05-03T13:13:53;7.53;;;6.90;;
74821;SDS011;63353;48.702;8.884;2023-05-03T13:16:24;8.17;;;7.37;;
74821;SDS011;63353;48.702;8.884;2023-05-03T13:18:50;10.40;;;8.47;;
74821;SDS011;63353;48.702;8.884;2023-05-03T13:21:19;9.50;;;8.50;;
74821;SDS011;63353;48.702;8.884;2023-05-03T13:23:45;8.27;;;7.40;;
74821;SDS011;63353;48.702;8.884;2023-05-03T13:26:11;7.50;;;6.57;;
74821;SDS011;63353;48.702;8.884;2023-05-03T13:28:36;7.20;;;6.50;;
74821;SDS011;63353;48.702;8.884;2023-05-03T13:31:03;7.30;;;6.60;;
74821;SDS011;63353;48.702;8.884;2023-05-03T13:33:30;6.90;;;6.30;;
74821;SDS011;63353;48.702;8.884;2023-05-03T13:35:55;8.13;;;7.33;;
74821;SDS011;63353;48.702;8.884;2023-05-03T13:38:24;7.30;;;6.53;;
74821;SDS011;63353;48.702;8.884;2023-05-03T13:40:50;8.37;;;7.57;;
74821;SDS011;63353;48.702;8.884;2023-05-03T13:43:16;8.70;;;7.43;;
74821;SDS011;63353;48.702;8.884;2023-05-03T13:45:45;8.63;;;7.73;;
74821;SDS011;63353;48.702;8.884;2023-05-03T13:48:10;9.17;;;7.80;;
74821;SDS011;63353;48.702;8.884;2023-05-03T13:50:49;8.47;;;7.60;;
74821;SDS011;63353;48.702;8.884;2023-05-03T13:53:14;8.30;;;7.40;;
74821;SDS011;63353;48.702;8.884;2023-05-03T13:55:48;9.17;;;7.00;;
74821;SDS011;63353;48.702;8.884;2023-05-03T13:58:14;8.13;;;7.33;;
74821;SDS011;63353;48.702;8.884;2023-05-03T14:00:40;7.27;;;6.50;;
74821;SDS011;63353;48.702;8.884;2023-05-03T14:03:06;8.13;;;6.40;;
74821;SDS011;63353;48.702;8.884;2023-05-03T14:05:37;7.07;;;6.40;;
74821;SDS011;63353;48.702;8.884;2023-05-03T14:08:03;7.20;;;6.60;;
74821;SDS011;63353;48.702;8.884;2023-05-03T14:10:29;7.47;;;6.77;;
74821;SDS011;63353;48.702;8.884;2023-05-03T14:13:00;7.53;;;6.73;;
74821;SDS011;63353;48.702;8.884;2023-05-03T14:15:26;6.60;;;6.00;;
74821;SDS011;63353;48.702;8.884;2023-05-03T14:17:51;6.73;;;5.83;;
74821;SDS011;63353;48.702;8.884;2023-05-03T14:20:17;7.07;;;5.97;;
74821;SDS011;63353;48.702;8.884;2023-05-03T14:22:43;5.97;;;5.47;;
74821;SDS011;63353;48.702;8.884;2023-05-03T14:25:09;6.50;;;5.90;;
74821;SDS011;63353;48.702;8.884;2023-05-03T14:27:35;6.00;;;5.40;;
74821;SDS011;63353;48.702;8.884;2023-05-03T14:30:01;7.00;;;6.20;;
74821;SDS011;63353;48.702;8.884;2023-05-03T14:32:27;5.93;;;5.35;;
74821;SDS011;63353;48.702;8.884;2023-05-03T14:34:53;6.20;;;5.70;;
74821;SDS011;63353;48.702;8.884;2023-05-03T14:37:19;6.03;;;5.55;;
74821;SDS011;63353;48.702;8.884;2023-05-03T14:39:45;5.43;;;5.03;;
74821;SDS011;63353;48.702;8.884;2023-05-03T14:42:11;8.82;;;8.07;;
74821;SDS011;63353;48.702;8.884;2023-05-03T14:44:36;11.80;;;10.70;;
74821;SDS011;63353;48.702;8.884;2023-05-03T14:47:02;5.50;;;5.00;;
74821;SDS011;63353;48.702;8.884;2023-05-03T14:49:28;5.82;;;5.30;;
74821;SDS011;63353;48.702;8.884;2023-05-03T14:51:57;5.03;;;4.70;;
74821;SDS011;63353;48.702;8.884;2023-05-03T14:54:23;5.53;;;5.13;;
74821;SDS011;63353;48.702;8.884;2023-05-03T14:56:49;4.90;;;4.50;;
74821;SDS011;63353;48.702;8.884;2023-05-03T14:59:14;5.82;;;5.32;;
74821;SDS011;63353;48.702;8.884;2023-05-03T15:01:40;5.72;;;5.30;;
74821;SDS011;63353;48.702;8.884;2023-05-03T15:04:06;4.93;;;4.60;;
74821;SDS011;63353;48.702;8.884;2023-05-03T15:06:34;5.18;;;4.88;;
74821;SDS011;63353;48.702;8.884;2023-05-03T15:09:03;5.60;;;5.10;;
74821;SDS011;63353;48.702;8.884;2023-05-03T15:11:29;5.97;;;5.47;;
74821;SDS011;63353;48.702;8.884;2023-05-03T15:13:55;6.28;;;5.78;;
74821;SDS011;63353;48.702;8.884;2023-05-03T15:16:20;6.35;;;5.57;;